sensor_id;sensor_type;location;lat;lon;timestamp;pressure;altitude;pressure_sealevel;temperature
72405;BMP280;60395;52.020;113.548;2024-01-10T00:01:57;91236.88;;;-14.82
72405;BMP280;60395;52.020;113.548;2024-01-10T00:05:01;91230.53;;;-14.83
72405;BMP280;60395;52.020;113.548;2024-01-10T00:08:04;91226.88;;;-14.92
72405;BMP280;60395;52.020;113.548;2024-01-10T00:11:09;91234.13;;;-14.86
72405;BMP280;60395;52.020;113.548;2024-01-10T00:14:12;91233.63;;;-14.73
72405;BMP280;60395;52.020;113.548;2024-01-10T00:17:16;91240.59;;;-14.62
72405;BMP280;60395;52.020;113.548;2024-01-10T00:20:19;91235.16;;;-14.47
72405;BMP280;60395;52.020;113.548;2024-01-10T00:23:23;91229.50;;;-14.35
72405;BMP280;60395;52.020;113.548;2024-01-10T00:26:26;91226.25;;;-14.26
72405;BMP280;60395;52.020;113.548;2024-01-10T00:29:30;91232.94;;;-14.19
72405;BMP280;60395;52.020;113.548;2024-01-10T00:32:33;91239.56;;;-14.35
72405;BMP280;60395;52.020;113.548;2024-01-10T00:35:37;91244.69;;;-14.45
72405;BMP280;60395;52.020;113.548;2024-01-10T00:38:41;91238.59;;;-14.42
72405;BMP280;60395;52.020;113.548;2024-01-10T00:41:44;91224.53;;;-14.45
72405;BMP280;60395;52.020;113.548;2024-01-10T00:44:47;91222.00;;;-14.78
72405;BMP280;60395;52.020;113.548;2024-01-10T00:47:51;91233.94;;;-15.00
72405;BMP280;60395;52.020;113.548;2024-01-10T00:50:54;91231.78;;;-14.94
72405;BMP280;60395;52.020;113.548;2024-01-10T00:53:58;91215.13;;;-14.78
72405;BMP280;60395;52.020;113.548;2024-01-10T00:57:01;91225.59;;;-14.60
72405;BMP280;60395;52.020;113.548;2024-01-10T01:00:06;91202.81;;;-14.62
72405;BMP280;60395;52.020;113.548;2024-01-10T01:03:10;91200.84;;;-14.85
72405;BMP280;60395;52.020;113.548;2024-01-10T01:06:13;91206.78;;;-15.01
72405;BMP280;60395;52.020;113.548;2024-01-10T01:09:18;91202.19;;;-15.05
72405;BMP280;60395;52.020;113.548;2024-01-10T01:12:21;91224.78;;;-14.95
72405;BMP280;60395;52.020;113.548;2024-01-10T01:15:25;91231.44;;;-14.79
72405;BMP280;60395;52.020;113.548;2024-01-10T01:18:28;91256.19;;;-14.75
72405;BMP280;60395;52.020;113.548;2024-01-10T01:21:32;91264.44;;;-14.63
72405;BMP280;60395;52.020;113.548;2024-01-10T01:24:35;91283.13;;;-14.45
72405;BMP280;60395;52.020;113.548;2024-01-10T01:27:38;91295.63;;;-14.25
72405;BMP280;60395;52.020;113.548;2024-01-10T01:30:42;91301.22;;;-14.15
72405;BMP280;60395;52.020;113.548;2024-01-10T01:33:46;91302.94;;;-14.08
72405;BMP280;60395;52.020;113.548;2024-01-10T01:36:49;91292.72;;;-13.98
72405;BMP280;60395;52.020;113.548;2024-01-10T01:39:54;91306.13;;;-13.96
72405;BMP280;60395;52.020;113.548;2024-01-10T01:42:58;91297.69;;;-13.89
72405;BMP280;60395;52.020;113.548;2024-01-10T01:46:02;91305.16;;;-13.79
72405;BMP280;60395;52.020;113.548;2024-01-10T01:49:06;91294.75;;;-13.73
72405;BMP280;60395;52.020;113.548;2024-01-10T01:52:10;91304.13;;;-13.97
72405;BMP280;60395;52.020;113.548;2024-01-10T01:55:14;91317.53;;;-13.95
72405;BMP280;60395;52.020;113.548;2024-01-10T01:58:17;91322.16;;;-13.80
72405;BMP280;60395;52.020;113.548;2024-01-10T02:01:21;91326.34;;;-13.72
72405;BMP280;60395;52.020;113.548;2024-01-10T02:04:25;91317.16;;;-13.56
72405;BMP280;60395;52.020;113.548;2024-01-10T02:07:29;91315.19;;;-13.23
72405;BMP280;60395;52.020;113.548;2024-01-10T02:10:34;91311.44;;;-12.87
72405;BMP280;60395;52.020;113.548;2024-01-10T02:13:38;91299.78;;;-12.43
72405;BMP280;60395;52.020;113.548;2024-01-10T02:16:41;91310.59;;;-12.17
72405;BMP280;60395;52.020;113.548;2024-01-10T02:19:45;91328.22;;;-12.05
72405;BMP280;60395;52.020;113.548;2024-01-10T02:22:48;91329.28;;;-11.97
72405;BMP280;60395;52.020;113.548;2024-01-10T02:25:53;91342.94;;;-12.02
72405;BMP280;60395;52.020;113.548;2024-01-10T02:28:56;91333.66;;;-11.97
72405;BMP280;60395;52.020;113.548;2024-01-10T02:32:00;91312.31;;;-12.20
72405;BMP280;60395;52.020;113.548;2024-01-10T02:35:04;91333.41;;;-12.41
72405;BMP280;60395;52.020;113.548;2024-01-10T02:38:07;91317.47;;;-12.31
72405;BMP280;60395;52.020;113.548;2024-01-10T02:41:11;91309.97;;;-12.29
72405;BMP280;60395;52.020;113.548;2024-01-10T02:44:14;91305.81;;;-12.11
72405;BMP280;60395;52.020;113.548;2024-01-10T02:47:19;91292.69;;;-11.68
72405;BMP280;60395;52.020;113.548;2024-01-10T02:50:22;91297.72;;;-11.16
72405;BMP280;60395;52.020;113.548;2024-01-10T02:53:26;91286.13;;;-10.78
72405;BMP280;60395;52.020;113.548;2024-01-10T02:56:29;91278.34;;;-10.52
72405;BMP280;60395;52.020;113.548;2024-01-10T02:59:33;91275.13;;;-10.39
72405;BMP280;60395;52.020;113.548;2024-01-10T03:02:36;91277.50;;;-10.27
72405;BMP280;60395;52.020;113.548;2024-01-10T03:05:40;91279.41;;;-10.28
72405;BMP280;60395;52.020;113.548;2024-01-10T03:08:43;91273.56;;;-10.30
72405;BMP280;60395;52.020;113.548;2024-01-10T03:11:47;91255.88;;;-10.44
72405;BMP280;60395;52.020;113.548;2024-01-10T03:14:50;91258.84;;;-10.63
72405;BMP280;60395;52.020;113.548;2024-01-10T03:17:53;91262.53;;;-10.66
72405;BMP280;60395;52.020;113.548;2024-01-10T03:20:57;91256.88;;;-10.65
72405;BMP280;60395;52.020;113.548;2024-01-10T03:24:01;91266.69;;;-10.73
72405;BMP280;60395;52.020;113.548;2024-01-10T03:27:05;91271.19;;;-10.72
72405;BMP280;60395;52.020;113.548;2024-01-10T03:30:09;91288.16;;;-10.60
72405;BMP280;60395;52.020;113.548;2024-01-10T03:33:13;91302.91;;;-10.57
72405;BMP280;60395;52.020;113.548;2024-01-10T03:36:18;91308.44;;;-10.60
72405;BMP280;60395;52.020;113.548;2024-01-10T03:39:22;91309.50;;;-10.65
72405;BMP280;60395;52.020;113.548;2024-01-10T03:42:25;91326.47;;;-10.68
72405;BMP280;60395;52.020;113.548;2024-01-10T03:45:28;91320.22;;;-10.81
72405;BMP280;60395;52.020;113.548;2024-01-10T03:48:32;91322.66;;;-10.83
72405;BMP280;60395;52.020;113.548;2024-01-10T03:51:36;91314.56;;;-10.79
72405;BMP280;60395;52.020;113.548;2024-01-10T03:54:40;91312.97;;;-10.73
72405;BMP280;60395;52.020;113.548;2024-01-10T03:57:43;91304.53;;;-10.77
72405;BMP280;60395;52.020;113.548;2024-01-10T04:00:47;91297.25;;;-10.69
72405;BMP280;60395;52.020;113.548;2024-01-10T04:03:51;91308.97;;;-10.48
72405;BMP280;60395;52.020;113.548;2024-01-10T04:06:54;91293.72;;;-10.19
72405;BMP280;60395;52.020;113.548;2024-01-10T04:09:57;91272.56;;;-9.94
72405;BMP280;60395;52.020;113.548;2024-01-10T04:13:01;91268.63;;;-9.81
72405;BMP280;60395;52.020;113.548;2024-01-10T04:16:05;91274.19;;;-9.85
72405;BMP280;60395;52.020;113.548;2024-01-10T04:19:08;91272.72;;;-9.90
72405;BMP280;60395;52.020;113.548;2024-01-10T04:22:12;91259.47;;;-9.88
72405;BMP280;60395;52.020;113.548;2024-01-10T04:25:15;91262.47;;;-9.92
72405;BMP280;60395;52.020;113.548;2024-01-10T04:28:19;91251.19;;;-9.89
72405;BMP280;60395;52.020;113.548;2024-01-10T04:31:22;91249.63;;;-9.80
72405;BMP280;60395;52.020;113.548;2024-01-10T04:34:26;91264.34;;;-9.92
72405;BMP280;60395;52.020;113.548;2024-01-10T04:37:29;91273.94;;;-10.07
72405;BMP280;60395;52.020;113.548;2024-01-10T04:40:32;91274.75;;;-10.02
72405;BMP280;60395;52.020;113.548;2024-01-10T04:43:36;91273.06;;;-9.82
72405;BMP280;60395;52.020;113.548;2024-01-10T04:46:39;91282.63;;;-9.65
72405;BMP280;60395;52.020;113.548;2024-01-10T04:49:44;91293.44;;;-9.48
72405;BMP280;60395;52.020;113.548;2024-01-10T04:52:47;91291.38;;;-9.36
72405;BMP280;60395;52.020;113.548;2024-01-10T04:55:51;91295.91;;;-9.35
72405;BMP280;60395;52.020;113.548;2024-01-10T04:58:54;91298.09;;;-9.43
72405;BMP280;60395;52.020;113.548;2024-01-10T05:01:58;91302.31;;;-9.49
72405;BMP280;60395;52.020;113.548;2024-01-10T05:05:01;91304.50;;;-9.57
72405;BMP280;60395;52.020;113.548;2024-01-10T05:08:07;91280.59;;;-9.68
72405;BMP280;60395;52.020;113.548;2024-01-10T05:11:10;91288.78;;;-9.70
72405;BMP280;60395;52.020;113.548;2024-01-10T05:14:14;91288.63;;;-9.74
72405;BMP280;60395;52.020;113.548;2024-01-10T05:17:18;91287.47;;;-9.71
72405;BMP280;60395;52.020;113.548;2024-01-10T05:20:22;91288.84;;;-9.52
72405;BMP280;60395;52.020;113.548;2024-01-10T05:23:25;91278.75;;;-9.34
72405;BMP280;60395;52.020;113.548;2024-01-10T05:26:29;91284.91;;;-9.39
72405;BMP280;60395;52.020;113.548;2024-01-10T05:29:32;91293.69;;;-9.58
72405;BMP280;60395;52.020;113.548;2024-01-10T05:32:36;91285.81;;;-9.48
72405;BMP280;60395;52.020;113.548;2024-01-10T05:35:39;91296.81;;;-9.28
72405;BMP280;60395;52.020;113.548;2024-01-10T05:38:43;91306.78;;;-9.16
72405;BMP280;60395;52.020;113.548;2024-01-10T05:41:46;91311.06;;;-9.03
72405;BMP280;60395;52.020;113.548;2024-01-10T05:44:50;91309.16;;;-8.87
72405;BMP280;60395;52.020;113.548;2024-01-10T05:47:54;91304.66;;;-8.71
72405;BMP280;60395;52.020;113.548;2024-01-10T05:50:58;91316.09;;;-8.54
72405;BMP280;60395;52.020;113.548;2024-01-10T05:54:01;91323.50;;;-8.42
72405;BMP280;60395;52.020;113.548;2024-01-10T05:57:05;91327.00;;;-8.34
72405;BMP280;60395;52.020;113.548;2024-01-10T06:00:09;91328.53;;;-8.27
72405;BMP280;60395;52.020;113.548;2024-01-10T06:03:13;91327.50;;;-8.20
72405;BMP280;60395;52.020;113.548;2024-01-10T06:06:16;91333.97;;;-8.16
72405;BMP280;60395;52.020;113.548;2024-01-10T06:09:20;91321.91;;;-8.16
72405;BMP280;60395;52.020;113.548;2024-01-10T06:12:24;91317.53;;;-8.13
72405;BMP280;60395;52.020;113.548;2024-01-10T06:15:28;91317.47;;;-8.15
72405;BMP280;60395;52.020;113.548;2024-01-10T06:18:31;91322.50;;;-8.17
72405;BMP280;60395;52.020;113.548;2024-01-10T06:21:35;91344.31;;;-8.12
72405;BMP280;60395;52.020;113.548;2024-01-10T06:24:39;91334.28;;;-8.08
72405;BMP280;60395;52.020;113.548;2024-01-10T06:27:47;91345.00;;;-7.92
72405;BMP280;60395;52.020;113.548;2024-01-10T06:30:51;91353.66;;;-7.82
72405;BMP280;60395;52.020;113.548;2024-01-10T06:33:57;91360.72;;;-7.80
72405;BMP280;60395;52.020;113.548;2024-01-10T06:37:01;91355.56;;;-7.82
72405;BMP280;60395;52.020;113.548;2024-01-10T06:40:05;91365.81;;;-7.80
72405;BMP280;60395;52.020;113.548;2024-01-10T06:43:09;91371.56;;;-7.79
72405;BMP280;60395;52.020;113.548;2024-01-10T06:46:13;91379.25;;;-7.77
72405;BMP280;60395;52.020;113.548;2024-01-10T06:49:17;91374.13;;;-7.79
72405;BMP280;60395;52.020;113.548;2024-01-10T06:52:21;91374.56;;;-7.85
72405;BMP280;60395;52.020;113.548;2024-01-10T06:55:25;91374.50;;;-7.87
72405;BMP280;60395;52.020;113.548;2024-01-10T06:58:29;91372.38;;;-7.93
72405;BMP280;60395;52.020;113.548;2024-01-10T07:01:32;91381.03;;;-8.00
72405;BMP280;60395;52.020;113.548;2024-01-10T07:04:39;91388.97;;;-8.09
72405;BMP280;60395;52.020;113.548;2024-01-10T07:07:43;91386.94;;;-8.13
72405;BMP280;60395;52.020;113.548;2024-01-10T07:10:47;91390.72;;;-8.14
72405;BMP280;60395;52.020;113.548;2024-01-10T07:13:51;91395.03;;;-8.18
72405;BMP280;60395;52.020;113.548;2024-01-10T07:16:54;91390.94;;;-8.26
72405;BMP280;60395;52.020;113.548;2024-01-10T07:20:00;91393.19;;;-8.34
72405;BMP280;60395;52.020;113.548;2024-01-10T07:23:04;91392.88;;;-8.42
72405;BMP280;60395;52.020;113.548;2024-01-10T07:26:07;91401.38;;;-8.53
72405;BMP280;60395;52.020;113.548;2024-01-10T07:29:11;91398.53;;;-8.61
72405;BMP280;60395;52.020;113.548;2024-01-10T07:32:14;91402.75;;;-8.68
72405;BMP280;60395;52.020;113.548;2024-01-10T07:35:18;91415.06;;;-8.78
72405;BMP280;60395;52.020;113.548;2024-01-10T07:38:23;91408.66;;;-8.79
72405;BMP280;60395;52.020;113.548;2024-01-10T07:41:27;91412.25;;;-8.68
72405;BMP280;60395;52.020;113.548;2024-01-10T07:44:31;91418.31;;;-8.60
72405;BMP280;60395;52.020;113.548;2024-01-10T07:47:35;91429.28;;;-8.55
72405;BMP280;60395;52.020;113.548;2024-01-10T07:50:42;91428.47;;;-8.60
72405;BMP280;60395;52.020;113.548;2024-01-10T07:53:45;91430.78;;;-8.66
72405;BMP280;60395;52.020;113.548;2024-01-10T07:56:48;91454.75;;;-8.71
72405;BMP280;60395;52.020;113.548;2024-01-10T07:59:52;91455.19;;;-8.76
72405;BMP280;60395;52.020;113.548;2024-01-10T08:02:56;91470.28;;;-8.80
72405;BMP280;60395;52.020;113.548;2024-01-10T08:06:01;91481.44;;;-8.87
72405;BMP280;60395;52.020;113.548;2024-01-10T08:09:05;91491.88;;;-8.97
72405;BMP280;60395;52.020;113.548;2024-01-10T08:12:08;91521.97;;;-9.07
72405;BMP280;60395;52.020;113.548;2024-01-10T08:15:12;91522.34;;;-9.13
72405;BMP280;60395;52.020;113.548;2024-01-10T08:18:17;91523.59;;;-9.14
72405;BMP280;60395;52.020;113.548;2024-01-10T08:21:20;91529.72;;;-9.19
72405;BMP280;60395;52.020;113.548;2024-01-10T08:24:24;91529.47;;;-9.25
72405;BMP280;60395;52.020;113.548;2024-01-10T08:27:28;91547.66;;;-9.31
72405;BMP280;60395;52.020;113.548;2024-01-10T08:30:31;91541.47;;;-9.41
72405;BMP280;60395;52.020;113.548;2024-01-10T08:33:35;91537.84;;;-9.52
72405;BMP280;60395;52.020;113.548;2024-01-10T08:36:39;91549.53;;;-9.60
72405;BMP280;60395;52.020;113.548;2024-01-10T08:39:43;91541.38;;;-9.73
72405;BMP280;60395;52.020;113.548;2024-01-10T08:42:47;91541.31;;;-9.88
72405;BMP280;60395;52.020;113.548;2024-01-10T08:45:50;91546.66;;;-10.10
72405;BMP280;60395;52.020;113.548;2024-01-10T08:48:54;91539.44;;;-10.29
72405;BMP280;60395;52.020;113.548;2024-01-10T08:51:57;91540.81;;;-10.53
72405;BMP280;60395;52.020;113.548;2024-01-10T08:55:01;91537.50;;;-10.70
72405;BMP280;60395;52.020;113.548;2024-01-10T08:58:04;91541.91;;;-10.70
72405;BMP280;60395;52.020;113.548;2024-01-10T09:01:08;91545.09;;;-10.70
72405;BMP280;60395;52.020;113.548;2024-01-10T09:04:11;91549.09;;;-10.66
72405;BMP280;60395;52.020;113.548;2024-01-10T09:07:15;91550.94;;;-10.67
72405;BMP280;60395;52.020;113.548;2024-01-10T09:10:21;91558.03;;;-10.65
72405;BMP280;60395;52.020;113.548;2024-01-10T09:13:24;91558.94;;;-10.73
72405;BMP280;60395;52.020;113.548;2024-01-10T09:16:36;91571.66;;;-10.84
72405;BMP280;60395;52.020;113.548;2024-01-10T09:19:39;91578.03;;;-10.83
72405;BMP280;60395;52.020;113.548;2024-01-10T09:22:42;91575.72;;;-10.79
72405;BMP280;60395;52.020;113.548;2024-01-10T09:25:46;91573.78;;;-10.67
72405;BMP280;60395;52.020;113.548;2024-01-10T09:28:49;91571.06;;;-10.57
72405;BMP280;60395;52.020;113.548;2024-01-10T09:31:53;91576.44;;;-10.51
72405;BMP280;60395;52.020;113.548;2024-01-10T09:34:57;91581.91;;;-10.43
72405;BMP280;60395;52.020;113.548;2024-01-10T09:38:01;91592.91;;;-10.39
72405;BMP280;60395;52.020;113.548;2024-01-10T09:41:05;91597.63;;;-10.33
72405;BMP280;60395;52.020;113.548;2024-01-10T09:44:09;91615.31;;;-10.21
72405;BMP280;60395;52.020;113.548;2024-01-10T09:47:14;91618.22;;;-10.13
72405;BMP280;60395;52.020;113.548;2024-01-10T09:50:18;91627.00;;;-9.89
72405;BMP280;60395;52.020;113.548;2024-01-10T09:53:23;91635.31;;;-9.59
72405;BMP280;60395;52.020;113.548;2024-01-10T09:56:27;91645.09;;;-9.40
72405;BMP280;60395;52.020;113.548;2024-01-10T09:59:30;91652.41;;;-9.32
72405;BMP280;60395;52.020;113.548;2024-01-10T10:02:34;91662.03;;;-9.31
72405;BMP280;60395;52.020;113.548;2024-01-10T10:05:38;91664.56;;;-9.31
72405;BMP280;60395;52.020;113.548;2024-01-10T10:08:45;91668.72;;;-9.37
72405;BMP280;60395;52.020;113.548;2024-01-10T10:11:56;91653.78;;;-9.45
72405;BMP280;60395;52.020;113.548;2024-01-10T10:15:10;91684.06;;;-9.35
72405;BMP280;60395;52.020;113.548;2024-01-10T10:18:14;91690.47;;;-9.34
72405;BMP280;60395;52.020;113.548;2024-01-10T10:21:18;91686.34;;;-9.27
72405;BMP280;60395;52.020;113.548;2024-01-10T10:24:22;91691.59;;;-9.23
72405;BMP280;60395;52.020;113.548;2024-01-10T10:27:29;91706.28;;;-9.22
72405;BMP280;60395;52.020;113.548;2024-01-10T10:30:33;91711.44;;;-9.20
72405;BMP280;60395;52.020;113.548;2024-01-10T10:33:37;91719.63;;;-9.21
72405;BMP280;60395;52.020;113.548;2024-01-10T10:36:42;91726.22;;;-9.30
72405;BMP280;60395;52.020;113.548;2024-01-10T10:39:46;91727.66;;;-9.41
72405;BMP280;60395;52.020;113.548;2024-01-10T10:42:59;91722.56;;;-9.41
72405;BMP280;60395;52.020;113.548;2024-01-10T10:46:06;91740.72;;;-9.33
72405;BMP280;60395;52.020;113.548;2024-01-10T10:49:11;91739.97;;;-9.21
72405;BMP280;60395;52.020;113.548;2024-01-10T10:52:17;91752.13;;;-9.06
72405;BMP280;60395;52.020;113.548;2024-01-10T10:55:24;91750.13;;;-8.94
72405;BMP280;60395;52.020;113.548;2024-01-10T10:58:32;91761.88;;;-8.87
72405;BMP280;60395;52.020;113.548;2024-01-10T11:01:37;91762.16;;;-8.81
72405;BMP280;60395;52.020;113.548;2024-01-10T11:04:42;91775.25;;;-8.73
72405;BMP280;60395;52.020;113.548;2024-01-10T11:07:47;91783.22;;;-8.65
72405;BMP280;60395;52.020;113.548;2024-01-10T11:10:52;91788.19;;;-8.53
72405;BMP280;60395;52.020;113.548;2024-01-10T11:24:30;91835.16;;;-8.56
72405;BMP280;60395;52.020;113.548;2024-01-10T11:27:36;91829.97;;;-8.58
72405;BMP280;60395;52.020;113.548;2024-01-10T11:30:53;91838.09;;;-8.62
72405;BMP280;60395;52.020;113.548;2024-01-10T11:33:57;91846.28;;;-8.63
72405;BMP280;60395;52.020;113.548;2024-01-10T11:37:11;91849.13;;;-8.57
72405;BMP280;60395;52.020;113.548;2024-01-10T11:40:15;91853.81;;;-8.51
72405;BMP280;60395;52.020;113.548;2024-01-10T11:43:27;91857.78;;;-8.48
72405;BMP280;60395;52.020;113.548;2024-01-10T11:46:30;91864.66;;;-8.51
72405;BMP280;60395;52.020;113.548;2024-01-10T11:49:35;91878.22;;;-8.46
72405;BMP280;60395;52.020;113.548;2024-01-10T11:52:38;91870.59;;;-8.46
72405;BMP280;60395;52.020;113.548;2024-01-10T11:55:52;91872.38;;;-8.49
72405;BMP280;60395;52.020;113.548;2024-01-10T11:59:00;91884.34;;;-8.51
72405;BMP280;60395;52.020;113.548;2024-01-10T12:02:05;91885.41;;;-8.57
72405;BMP280;60395;52.020;113.548;2024-01-10T12:05:08;91886.44;;;-8.62
72405;BMP280;60395;52.020;113.548;2024-01-10T12:08:12;91889.53;;;-8.63
72405;BMP280;60395;52.020;113.548;2024-01-10T12:11:22;91894.47;;;-8.67
72405;BMP280;60395;52.020;113.548;2024-01-10T12:14:25;91897.38;;;-8.73
72405;BMP280;60395;52.020;113.548;2024-01-10T12:17:29;91885.69;;;-8.78
72405;BMP280;60395;52.020;113.548;2024-01-10T12:20:33;91890.03;;;-8.80
72405;BMP280;60395;52.020;113.548;2024-01-10T12:23:36;91889.91;;;-8.82
72405;BMP280;60395;52.020;113.548;2024-01-10T12:26:45;91893.03;;;-8.84
72405;BMP280;60395;52.020;113.548;2024-01-10T12:29:52;91892.94;;;-8.86
72405;BMP280;60395;52.020;113.548;2024-01-10T12:33:01;91893.44;;;-8.89
72405;BMP280;60395;52.020;113.548;2024-01-10T12:36:07;91909.72;;;-8.95
72405;BMP280;60395;52.020;113.548;2024-01-10T12:39:12;91916.28;;;-9.03
72405;BMP280;60395;52.020;113.548;2024-01-10T12:42:15;91919.84;;;-9.08
72405;BMP280;60395;52.020;113.548;2024-01-10T12:45:22;91922.75;;;-9.14
72405;BMP280;60395;52.020;113.548;2024-01-10T12:48:26;91926.53;;;-9.15
72405;BMP280;60395;52.020;113.548;2024-01-10T12:51:31;91933.41;;;-9.17
72405;BMP280;60395;52.020;113.548;2024-01-10T12:54:36;91924.91;;;-9.22
72405;BMP280;60395;52.020;113.548;2024-01-10T12:57:39;91927.84;;;-9.27
72405;BMP280;60395;52.020;113.548;2024-01-10T13:00:43;91941.63;;;-9.31
72405;BMP280;60395;52.020;113.548;2024-01-10T13:03:46;91934.47;;;-9.34
72405;BMP280;60395;52.020;113.548;2024-01-10T13:06:51;91939.34;;;-9.38
72405;BMP280;60395;52.020;113.548;2024-01-10T13:09:55;91935.28;;;-9.43
72405;BMP280;60395;52.020;113.548;2024-01-10T13:12:59;91942.69;;;-9.47
72405;BMP280;60395;52.020;113.548;2024-01-10T13:16:03;91950.88;;;-9.49
72405;BMP280;60395;52.020;113.548;2024-01-10T13:19:06;91950.69;;;-9.53
72405;BMP280;60395;52.020;113.548;2024-01-10T13:22:10;91958.88;;;-9.54
72405;BMP280;60395;52.020;113.548;2024-01-10T13:25:14;91962.41;;;-9.59
72405;BMP280;60395;52.020;113.548;2024-01-10T13:28:18;91961.56;;;-9.64
72405;BMP280;60395;52.020;113.548;2024-01-10T13:31:22;91975.94;;;-9.69
72405;BMP280;60395;52.020;113.548;2024-01-10T13:34:25;91987.66;;;-9.75
72405;BMP280;60395;52.020;113.548;2024-01-10T13:37:29;91987.44;;;-9.79
72405;BMP280;60395;52.020;113.548;2024-01-10T13:40:34;91985.34;;;-9.83
72405;BMP280;60395;52.020;113.548;2024-01-10T13:43:38;91988.91;;;-9.88
72405;BMP280;60395;52.020;113.548;2024-01-10T13:46:43;91990.00;;;-9.91
72405;BMP280;60395;52.020;113.548;2024-01-10T13:49:46;91986.59;;;-9.95
72405;BMP280;60395;52.020;113.548;2024-01-10T13:52:50;91985.81;;;-9.98
72405;BMP280;60395;52.020;113.548;2024-01-10T13:55:54;91993.34;;;-10.00
72405;BMP280;60395;52.020;113.548;2024-01-10T13:58:58;91977.78;;;-10.06
72405;BMP280;60395;52.020;113.548;2024-01-10T14:02:01;91989.69;;;-10.09
72405;BMP280;60395;52.020;113.548;2024-01-10T14:05:05;91990.81;;;-10.12
72405;BMP280;60395;52.020;113.548;2024-01-10T14:08:09;91978.44;;;-10.17
72405;BMP280;60395;52.020;113.548;2024-01-10T14:11:13;91987.28;;;-10.18
72405;BMP280;60395;52.020;113.548;2024-01-10T14:14:17;91992.03;;;-10.24
72405;BMP280;60395;52.020;113.548;2024-01-10T14:17:26;92005.06;;;-10.30
72405;BMP280;60395;52.020;113.548;2024-01-10T14:20:29;92007.25;;;-10.36
72405;BMP280;60395;52.020;113.548;2024-01-10T14:23:33;92010.25;;;-10.40
72405;BMP280;60395;52.020;113.548;2024-01-10T14:26:37;92010.69;;;-10.43
72405;BMP280;60395;52.020;113.548;2024-01-10T14:29:41;92003.50;;;-10.47
72405;BMP280;60395;52.020;113.548;2024-01-10T14:32:44;92002.84;;;-10.47
72405;BMP280;60395;52.020;113.548;2024-01-10T14:35:50;92005.81;;;-10.51
72405;BMP280;60395;52.020;113.548;2024-01-10T14:38:55;91998.66;;;-10.54
72405;BMP280;60395;52.020;113.548;2024-01-10T14:42:01;92003.47;;;-10.58
72405;BMP280;60395;52.020;113.548;2024-01-10T14:45:05;92006.59;;;-10.60
72405;BMP280;60395;52.020;113.548;2024-01-10T14:48:08;92006.47;;;-10.62
72405;BMP280;60395;52.020;113.548;2024-01-10T14:51:12;92007.03;;;-10.63
72405;BMP280;60395;52.020;113.548;2024-01-10T14:54:16;92015.19;;;-10.65
72405;BMP280;60395;52.020;113.548;2024-01-10T14:57:21;92016.41;;;-10.66
72405;BMP280;60395;52.020;113.548;2024-01-10T15:00:25;92014.84;;;-10.71
72405;BMP280;60395;52.020;113.548;2024-01-10T15:03:28;92020.34;;;-10.75
72405;BMP280;60395;52.020;113.548;2024-01-10T15:06:32;92020.88;;;-10.76
72405;BMP280;60395;52.020;113.548;2024-01-10T15:09:35;92022.88;;;-10.75
72405;BMP280;60395;52.020;113.548;2024-01-10T15:12:39;92021.03;;;-10.74
72405;BMP280;60395;52.020;113.548;2024-01-10T15:15:43;92027.28;;;-10.75
72405;BMP280;60395;52.020;113.548;2024-01-10T15:18:46;92021.69;;;-10.74
72405;BMP280;60395;52.020;113.548;2024-01-10T15:21:50;92025.41;;;-10.75
72405;BMP280;60395;52.020;113.548;2024-01-10T15:24:53;92034.22;;;-10.76
72405;BMP280;60395;52.020;113.548;2024-01-10T15:27:56;92034.69;;;-10.79
72405;BMP280;60395;52.020;113.548;2024-01-10T15:31:01;92032.59;;;-10.83
72405;BMP280;60395;52.020;113.548;2024-01-10T15:34:05;92032.59;;;-10.83
72405;BMP280;60395;52.020;113.548;2024-01-10T15:37:09;92038.72;;;-10.86
72405;BMP280;60395;52.020;113.548;2024-01-10T15:40:13;92041.81;;;-10.87
72405;BMP280;60395;52.020;113.548;2024-01-10T15:43:16;92027.56;;;-10.92
72405;BMP280;60395;52.020;113.548;2024-01-10T15:46:20;92033.09;;;-10.96
72405;BMP280;60395;52.020;113.548;2024-01-10T15:49:24;92031.41;;;-11.03
72405;BMP280;60395;52.020;113.548;2024-01-10T15:52:27;92037.59;;;-11.06
72405;BMP280;60395;52.020;113.548;2024-01-10T15:55:31;92030.41;;;-11.10
72405;BMP280;60395;52.020;113.548;2024-01-10T15:58:36;92037.22;;;-11.12
72405;BMP280;60395;52.020;113.548;2024-01-10T16:01:40;92032.47;;;-11.18
72405;BMP280;60395;52.020;113.548;2024-01-10T16:04:44;92041.63;;;-11.13
72405;BMP280;60395;52.020;113.548;2024-01-10T16:07:47;92046.91;;;-11.09
72405;BMP280;60395;52.020;113.548;2024-01-10T16:10:51;92030.75;;;-11.04
72405;BMP280;60395;52.020;113.548;2024-01-10T16:13:54;92037.91;;;-11.00
72405;BMP280;60395;52.020;113.548;2024-01-10T16:16:58;92039.78;;;-11.00
72405;BMP280;60395;52.020;113.548;2024-01-10T16:20:02;92044.88;;;-11.00
72405;BMP280;60395;52.020;113.548;2024-01-10T16:23:08;92038.47;;;-11.01
72405;BMP280;60395;52.020;113.548;2024-01-10T16:26:12;92042.78;;;-11.04
72405;BMP280;60395;52.020;113.548;2024-01-10T16:29:15;92033.19;;;-11.06
72405;BMP280;60395;52.020;113.548;2024-01-10T16:32:20;92031.06;;;-11.09
72405;BMP280;60395;52.020;113.548;2024-01-10T16:35:24;92034.03;;;-11.13
72405;BMP280;60395;52.020;113.548;2024-01-10T16:38:27;92041.50;;;-11.15
72405;BMP280;60395;52.020;113.548;2024-01-10T16:41:31;92045.25;;;-11.16
72405;BMP280;60395;52.020;113.548;2024-01-10T16:44:35;92052.19;;;-11.16
72405;BMP280;60395;52.020;113.548;2024-01-10T16:47:39;92048.22;;;-11.19
72405;BMP280;60395;52.020;113.548;2024-01-10T16:50:43;92051.31;;;-11.21
72405;BMP280;60395;52.020;113.548;2024-01-10T16:53:46;92051.41;;;-11.19
72405;BMP280;60395;52.020;113.548;2024-01-10T16:56:50;92057.03;;;-11.20
72405;BMP280;60395;52.020;113.548;2024-01-10T16:59:54;92051.84;;;-11.22
72405;BMP280;60395;52.020;113.548;2024-01-10T17:02:58;92049.06;;;-11.26
72405;BMP280;60395;52.020;113.548;2024-01-10T17:06:02;92052.63;;;-11.20
72405;BMP280;60395;52.020;113.548;2024-01-10T17:09:07;92056.06;;;-11.15
72405;BMP280;60395;52.020;113.548;2024-01-10T17:12:12;92069.38;;;-11.15
72405;BMP280;60395;52.020;113.548;2024-01-10T17:15:16;92066.75;;;-11.17